createdAt,value
2023-04-23T00:02:31.087Z,9.77
2023-04-23T00:05:04.667Z,3.73
2023-04-23T00:07:34.596Z,12.27
2023-04-23T00:10:05.734Z,10.40
2023-04-23T00:12:34.536Z,3.03
2023-04-23T00:15:04.003Z,5.43
2023-04-23T00:17:33.804Z,7.53
2023-04-23T00:20:02.320Z,9.73
2023-04-23T00:22:30.502Z,5.00
2023-04-23T00:24:58.805Z,11.50
2023-04-23T00:27:27.149Z,5.47
2023-04-23T00:29:55.289Z,7.40
2023-04-23T00:32:23.877Z,4.57
2023-04-23T00:34:54.539Z,4.10
2023-04-23T00:37:22.757Z,4.60
2023-04-23T00:39:51.093Z,6.13
2023-04-23T00:42:19.346Z,5.13
2023-04-23T00:44:48.106Z,10.07
2023-04-23T00:47:17.152Z,9.57
2023-04-23T00:49:46.418Z,5.10
2023-04-23T00:52:16.455Z,3.50
2023-04-23T00:54:44.748Z,7.43
2023-04-23T00:57:13.315Z,7.17
2023-04-23T00:59:42.111Z,8.10
2023-04-23T01:02:10.884Z,4.30
2023-04-23T01:04:40.005Z,6.77
2023-04-23T01:07:08.618Z,5.83
2023-04-23T01:09:38.353Z,3.57
2023-04-23T01:12:07.591Z,4.23
2023-04-23T01:14:37.086Z,13.20
2023-04-23T01:17:06.078Z,5.37
2023-04-23T01:19:34.382Z,4.43
2023-04-23T01:22:02.722Z,4.57
2023-04-23T01:24:33.632Z,5.40
2023-04-23T01:27:01.805Z,4.43
2023-04-23T01:29:31.183Z,7.50
2023-04-23T01:32:00.551Z,5.90
2023-04-23T01:34:28.691Z,8.87
2023-04-23T01:36:58.579Z,11.83
2023-04-23T01:39:27.187Z,7.80
2023-04-23T01:41:57.412Z,2.97
2023-04-23T01:44:25.814Z,3.07
2023-04-23T01:46:54.890Z,7.77
2023-04-23T01:49:23.267Z,5.77
2023-04-23T01:51:51.486Z,6.27
2023-04-23T01:54:19.930Z,6.97
2023-04-23T01:56:48.127Z,5.93
2023-04-23T01:59:17.802Z,6.30
2023-04-23T02:01:47.592Z,4.40
2023-04-23T02:04:16.776Z,12.90
2023-04-23T02:06:48.734Z,6.47
2023-04-23T02:09:16.975Z,5.00
2023-04-23T02:11:45.191Z,6.60
2023-04-23T02:14:13.857Z,4.93
2023-04-23T02:16:43.402Z,7.47
2023-04-23T02:19:13.561Z,9.50
2023-04-23T02:21:43.923Z,5.30
2023-04-23T02:24:12.262Z,3.93
2023-04-23T02:26:40.458Z,5.13
2023-04-23T02:29:08.882Z,4.43
2023-04-23T02:31:37.145Z,7.87
2023-04-23T02:34:06.709Z,9.60
2023-04-23T02:36:35.024Z,5.53
2023-04-23T02:39:03.626Z,5.47
2023-04-23T02:41:31.842Z,6.00
2023-04-23T02:44:00.418Z,5.60
2023-04-23T02:46:29.334Z,3.50
2023-04-23T02:48:57.470Z,8.13
2023-04-23T02:51:27.487Z,5.10
2023-04-23T02:53:55.646Z,5.30
2023-04-23T02:56:24.067Z,6.20
2023-04-23T02:58:52.419Z,8.30
2023-04-23T03:01:20.803Z,6.03
2023-04-23T03:03:49.284Z,6.33
2023-04-23T03:06:18.074Z,6.30
2023-04-23T03:08:47.569Z,13.37
2023-04-23T03:11:16.329Z,7.97
2023-04-23T03:13:44.737Z,8.47
2023-04-23T03:16:14.390Z,5.57
2023-04-23T03:18:42.595Z,6.47
2023-04-23T03:21:10.771Z,5.53
2023-04-23T03:23:38.974Z,7.03
2023-04-23T03:26:08.662Z,4.47
2023-04-23T03:28:37.033Z,6.17
2023-04-23T03:31:05.333Z,7.07
2023-04-23T03:33:33.766Z,9.17
2023-04-23T03:36:02.028Z,4.83
2023-04-23T03:38:30.140Z,6.53
2023-04-23T03:40:58.454Z,8.03
2023-04-23T03:43:27.936Z,10.37
2023-04-23T03:45:56.102Z,6.10
2023-04-23T03:48:24.566Z,10.60
2023-04-23T03:50:52.840Z,8.10
2023-04-23T03:53:21.669Z,11.50
2023-04-23T03:55:50.135Z,12.27
2023-04-23T03:58:18.687Z,4.27
2023-04-23T04:00:48.369Z,7.70
2023-04-23T04:03:16.977Z,5.20
2023-04-23T04:05:45.651Z,8.67
2023-04-23T04:08:13.970Z,6.70
2023-04-23T04:10:42.752Z,6.10
2023-04-23T04:13:10.998Z,5.40
2023-04-23T04:15:39.184Z,7.23
2023-04-23T04:18:08.934Z,8.20
2023-04-23T04:20:37.132Z,8.57
2023-04-23T04:23:05.348Z,8.33
2023-04-23T04:25:33.743Z,5.13
2023-04-23T04:28:01.888Z,8.60
2023-04-23T04:30:30.185Z,5.90
2023-04-23T04:32:58.945Z,7.60
2023-04-23T04:35:28.591Z,7.50
2023-04-23T04:37:56.790Z,6.67
2023-04-23T04:40:26.679Z,6.80
2023-04-23T04:42:55.197Z,6.13
2023-04-23T04:45:23.984Z,3.27
2023-04-23T04:47:52.514Z,6.33
2023-04-23T04:50:20.840Z,9.97
2023-04-23T04:52:50.553Z,9.50
2023-04-23T04:55:19.065Z,16.47
2023-04-23T04:57:47.202Z,19.90
2023-04-23T05:00:24.464Z,19.27
2023-04-23T05:02:53.246Z,6.70
2023-04-23T05:05:23.131Z,7.33
2023-04-23T05:07:54.327Z,9.83
2023-04-23T05:10:22.714Z,4.77
2023-04-23T05:12:51.984Z,9.43
2023-04-23T05:15:20.569Z,11.43
2023-04-23T05:17:50.351Z,6.93
2023-04-23T05:20:18.750Z,8.37
2023-04-23T05:22:46.983Z,11.10
2023-04-23T05:25:16.518Z,3.00
2023-04-23T05:27:44.785Z,8.20
2023-04-23T05:30:13.530Z,7.03
2023-04-23T05:32:41.936Z,5.83
2023-04-23T05:35:10.738Z,6.13
2023-04-23T05:37:39.156Z,9.87
2023-04-23T05:40:08.545Z,6.10
2023-04-23T05:42:38.537Z,8.30
2023-04-23T05:45:09.021Z,5.97
2023-04-23T05:47:37.948Z,4.93
2023-04-23T05:50:07.404Z,4.53
2023-04-23T05:52:37.748Z,7.20
2023-04-23T05:55:06.809Z,3.07
2023-04-23T05:57:35.045Z,5.10
2023-04-23T06:00:06.663Z,7.30
2023-04-23T06:02:34.993Z,7.37
2023-04-23T06:05:03.887Z,13.20
2023-04-23T06:07:32.315Z,5.57
2023-04-23T06:10:00.823Z,4.43
2023-04-23T06:12:29.122Z,4.20
2023-04-23T06:14:57.438Z,7.00
2023-04-23T06:17:27.227Z,8.53
2023-04-23T06:19:55.365Z,5.47
2023-04-23T06:22:23.682Z,8.73
2023-04-23T06:24:51.986Z,5.07
2023-04-23T06:27:20.166Z,5.23
2023-04-23T06:29:48.342Z,7.67
2023-04-23T06:32:19.784Z,4.33
2023-04-23T06:35:00.162Z,4.57
2023-04-23T06:37:30.873Z,6.77
2023-04-23T06:40:00.301Z,5.23
2023-04-23T06:42:28.388Z,11.73
2023-04-23T06:44:56.809Z,5.23
2023-04-23T06:47:25.179Z,4.47
2023-04-23T06:49:54.733Z,4.03
2023-04-23T06:52:23.042Z,2.50
2023-04-23T06:54:51.480Z,2.73
2023-04-23T06:57:19.720Z,8.40
2023-04-23T06:59:48.062Z,3.60
2023-04-23T07:02:16.436Z,4.60
2023-04-23T07:04:45.435Z,4.17
2023-04-23T07:07:15.544Z,6.73
2023-04-23T07:09:43.893Z,5.27
2023-04-23T07:12:12.357Z,6.70
2023-04-23T07:14:40.861Z,5.23
2023-04-23T07:17:09.576Z,7.37
2023-04-23T07:19:37.802Z,3.13
2023-04-23T07:22:06.219Z,2.97
2023-04-23T07:24:36.020Z,2.97
2023-04-23T07:27:04.700Z,5.37
2023-04-23T07:29:32.872Z,1.87
2023-04-23T07:32:01.341Z,1.10
2023-04-23T07:34:29.706Z,3.90
2023-04-23T07:36:58.051Z,12.20
2023-04-23T07:39:26.527Z,4.80
2023-04-23T07:41:56.795Z,2.90
2023-04-23T07:44:24.920Z,5.40
2023-04-23T07:46:53.626Z,3.57
2023-04-23T07:49:21.743Z,5.40
2023-04-23T07:51:50.016Z,5.33
2023-04-23T07:54:18.316Z,1.83
2023-04-23T07:56:46.437Z,5.13
2023-04-23T07:59:16.036Z,3.33
2023-04-23T08:01:44.326Z,3.20
2023-04-23T08:04:14.240Z,4.20
2023-04-23T08:06:43.148Z,3.83
2023-04-23T08:09:11.555Z,7.63
2023-04-23T08:11:39.801Z,3.73
2023-04-23T08:14:08.027Z,4.40
2023-04-23T08:16:39.088Z,7.37
2023-04-23T08:19:07.809Z,4.57
2023-04-23T08:21:36.299Z,7.30
2023-04-23T08:24:05.450Z,8.77
2023-04-23T08:26:33.816Z,6.30
2023-04-23T08:29:03.035Z,6.73
2023-04-23T08:31:31.485Z,17.43
2023-04-23T08:34:01.285Z,5.00
2023-04-23T08:36:29.588Z,2.37
2023-04-23T08:38:57.974Z,5.67
2023-04-23T08:41:34.775Z,14.47
2023-04-23T08:44:08.943Z,6.23
2023-04-23T08:46:38.586Z,5.80
2023-04-23T08:49:09.785Z,5.53
2023-04-23T08:51:43.379Z,1.63
2023-04-23T08:54:17.139Z,1.77
2023-04-23T08:56:46.882Z,4.10
2023-04-23T08:59:17.946Z,6.87
2023-04-23T09:01:46.462Z,11.50
2023-04-23T09:04:17.218Z,4.07
2023-04-23T09:06:45.503Z,6.80
2023-04-23T09:09:16.642Z,3.80
2023-04-23T09:11:45.294Z,6.47
2023-04-23T09:14:14.817Z,6.03
2023-04-23T09:16:43.204Z,11.23
2023-04-23T09:19:12.681Z,9.57
2023-04-23T09:21:42.738Z,5.23
2023-04-23T09:24:12.861Z,5.17
2023-04-23T09:26:46.872Z,3.93
2023-04-23T09:29:19.256Z,4.00
2023-04-23T09:31:49.557Z,7.73
2023-04-23T09:34:19.341Z,1.27
2023-04-23T09:36:50.866Z,4.83
2023-04-23T09:39:21.666Z,7.20
2023-04-23T09:41:52.351Z,4.63
2023-04-23T09:44:22.577Z,4.53
2023-04-23T09:46:51.503Z,2.50
2023-04-23T09:49:20.036Z,4.43
2023-04-23T09:51:50.431Z,3.70
2023-04-23T09:54:23.706Z,7.27
2023-04-23T09:56:53.925Z,6.10
2023-04-23T09:59:35.417Z,10.13
2023-04-23T10:02:12.837Z,2.80
2023-04-23T10:04:41.989Z,3.33
2023-04-23T10:09:45.300Z,2.23
2023-04-23T10:14:49.371Z,3.53
2023-04-23T10:17:17.980Z,7.07
2023-04-23T10:19:46.871Z,9.10
2023-04-23T10:22:20.566Z,3.27
2023-04-23T10:24:53.208Z,4.10
2023-04-23T10:27:33.388Z,11.47
2023-04-23T10:30:14.595Z,5.20
2023-04-23T10:32:43.491Z,5.13
2023-04-23T10:35:11.820Z,5.23
2023-04-23T10:37:42.163Z,3.53
2023-04-23T10:40:14.247Z,1.73
2023-04-23T10:42:44.033Z,1.90
2023-04-23T10:45:23.999Z,4.40
2023-04-23T10:47:55.878Z,6.20
2023-04-23T10:50:26.367Z,5.40
2023-04-23T10:52:58.105Z,3.40
2023-04-23T10:55:28.666Z,6.03
2023-04-23T10:58:01.266Z,6.63
2023-04-23T11:00:32.217Z,3.20
2023-04-23T11:03:00.719Z,7.73
2023-04-23T11:05:29.374Z,10.53
2023-04-23T11:10:56.150Z,7.83
2023-04-23T11:13:26.129Z,1.10
2023-04-23T11:16:17.651Z,5.13
2023-04-23T11:19:03.936Z,3.10
2023-04-23T11:22:01.030Z,6.83
2023-04-23T11:24:32.859Z,8.33
2023-04-23T11:27:02.900Z,8.17
2023-04-23T11:29:31.318Z,8.70
2023-04-23T11:32:03.172Z,4.73
2023-04-23T11:34:32.338Z,7.70
2023-04-23T11:37:01.588Z,10.27
2023-04-23T11:39:31.267Z,4.60
2023-04-23T11:42:03.084Z,6.87
2023-04-23T11:44:31.913Z,4.30
2023-04-23T11:47:02.579Z,3.73
2023-04-23T11:49:31.029Z,7.33
2023-04-23T11:52:01.809Z,6.27
2023-04-23T11:54:31.405Z,3.00
2023-04-23T11:57:00.076Z,8.37
2023-04-23T11:59:29.075Z,7.00
2023-04-23T12:01:59.039Z,7.33
2023-04-23T12:04:28.369Z,5.77
2023-04-23T12:06:58.065Z,2.57
2023-04-23T12:09:28.184Z,3.37
2023-04-23T12:11:59.262Z,6.27
2023-04-23T12:14:30.241Z,10.23
2023-04-23T12:16:59.667Z,11.97
2023-04-23T12:19:29.877Z,2.97
2023-04-23T12:21:59.826Z,8.30
2023-04-23T12:24:30.374Z,5.73
2023-04-23T12:27:02.906Z,14.27
2023-04-23T12:29:32.098Z,9.27
2023-04-23T12:32:01.328Z,8.20
2023-04-23T12:34:29.654Z,7.53
2023-04-23T12:36:58.453Z,4.03
2023-04-23T12:39:29.508Z,4.40
2023-04-23T12:42:02.949Z,6.77
2023-04-23T12:44:31.669Z,8.17
2023-04-23T12:47:03.536Z,5.53
2023-04-23T12:49:33.084Z,18.33
2023-04-23T12:52:02.564Z,5.43
2023-04-23T12:54:32.993Z,6.53
2023-04-23T12:57:03.140Z,5.40
2023-04-23T12:59:31.760Z,5.80
2023-04-23T13:02:02.433Z,6.67
2023-04-23T13:04:31.601Z,8.73
2023-04-23T13:06:59.941Z,9.47
2023-04-23T13:09:29.376Z,4.73
2023-04-23T13:11:57.670Z,10.57
2023-04-23T13:14:27.919Z,23.50
2023-04-23T13:16:58.065Z,9.33
2023-04-23T13:19:26.460Z,4.47
2023-04-23T13:21:54.762Z,8.63
2023-04-23T13:24:23.084Z,10.50
2023-04-23T13:26:51.282Z,9.13
2023-04-23T13:29:19.458Z,7.37
2023-04-23T13:31:49.172Z,14.83
2023-04-23T13:34:17.694Z,9.80
2023-04-23T13:36:45.955Z,9.97
2023-04-23T13:39:14.607Z,7.37
2023-04-23T13:41:43.000Z,11.03
2023-04-23T13:44:12.598Z,11.10
2023-04-23T13:46:41.322Z,9.43
2023-04-23T13:49:11.102Z,11.77
2023-04-23T13:51:39.300Z,7.10
2023-04-23T13:54:07.931Z,11.03
2023-04-23T13:56:37.581Z,13.33
2023-04-23T13:59:19.000Z,9.30
2023-04-23T14:01:50.002Z,10.40
2023-04-23T14:04:22.668Z,8.13
2023-04-23T14:06:51.118Z,8.43
2023-04-23T14:09:22.184Z,8.43
2023-04-23T14:11:50.794Z,7.80
2023-04-23T14:14:19.218Z,8.17
2023-04-23T14:16:47.325Z,13.60
2023-04-23T14:19:15.476Z,16.30
2023-04-23T14:21:46.309Z,11.33
2023-04-23T14:24:19.884Z,14.00
2023-04-23T14:26:50.076Z,17.77
2023-04-23T14:29:26.489Z,9.67
2023-04-23T14:31:55.119Z,11.70
2023-04-23T14:34:23.353Z,9.93
2023-04-23T14:36:53.498Z,11.93
2023-04-23T14:39:23.622Z,13.20
2023-04-23T14:41:51.975Z,20.00
2023-04-23T14:44:20.135Z,18.80
2023-04-23T14:46:50.070Z,12.60
2023-04-23T14:49:18.708Z,13.70
2023-04-23T14:51:46.978Z,20.53
2023-04-23T14:54:16.746Z,15.47
2023-04-23T14:56:44.999Z,18.83
2023-04-23T14:59:13.896Z,13.33
2023-04-23T15:01:42.352Z,12.53
2023-04-23T15:04:11.661Z,13.80
2023-04-23T15:06:40.697Z,18.40
2023-04-23T15:09:09.270Z,21.30
2023-04-23T15:11:39.173Z,14.77
2023-04-23T15:14:19.668Z,14.37
2023-04-23T15:16:49.760Z,14.00
2023-04-23T15:19:19.122Z,13.60
2023-04-23T15:21:47.994Z,12.63
2023-04-23T15:24:17.064Z,12.20
2023-04-23T15:26:46.802Z,14.27
2023-04-23T15:29:15.223Z,12.20
2023-04-23T15:31:43.383Z,13.87
2023-04-23T15:34:12.345Z,13.83
2023-04-23T15:36:40.823Z,13.10
2023-04-23T15:39:10.173Z,10.10
2023-04-23T15:41:40.770Z,10.27
2023-04-23T15:44:12.857Z,12.90
2023-04-23T15:46:41.225Z,9.57
2023-04-23T15:49:09.492Z,11.37
2023-04-23T15:51:38.262Z,15.80
2023-04-23T15:54:08.832Z,18.40
2023-04-23T15:56:37.764Z,11.57
2023-04-23T15:59:06.282Z,13.33
2023-04-23T16:01:36.347Z,15.37
2023-04-23T16:06:36.287Z,14.00
2023-04-23T16:09:07.267Z,15.40
2023-04-23T16:11:36.044Z,14.63
2023-04-23T16:14:04.725Z,13.17
2023-04-23T16:16:33.217Z,17.23
2023-04-23T16:19:03.359Z,19.27
2023-04-23T16:21:32.312Z,23.43
2023-04-23T16:24:00.656Z,14.23
2023-04-23T16:26:29.585Z,16.80
2023-04-23T16:29:11.288Z,16.60
2023-04-23T16:31:40.321Z,23.00
2023-04-23T16:34:10.317Z,17.43
2023-04-23T16:36:38.802Z,19.43
2023-04-23T16:39:07.103Z,13.77
2023-04-23T16:41:35.287Z,11.23
2023-04-23T16:44:03.422Z,15.10
2023-04-23T16:46:32.065Z,17.20
2023-04-23T16:49:00.633Z,15.20
2023-04-23T16:51:30.710Z,14.43
2023-04-23T16:53:59.313Z,18.63
2023-04-23T16:56:28.755Z,13.07
2023-04-23T16:58:57.278Z,16.37
2023-04-23T17:01:25.744Z,16.27
2023-04-23T17:03:54.156Z,27.80
2023-04-23T17:06:28.047Z,25.37
2023-04-23T17:08:59.155Z,13.73
2023-04-23T17:11:28.529Z,21.07
2023-04-23T17:13:57.935Z,45.60
2023-04-23T17:16:27.653Z,13.67
2023-04-23T17:18:56.713Z,29.93
2023-04-23T17:21:25.922Z,18.47
2023-04-23T17:23:54.375Z,22.67
2023-04-23T17:26:24.050Z,23.63
2023-04-23T17:28:52.258Z,26.07
2023-04-23T17:31:21.016Z,24.63
2023-04-23T17:33:50.405Z,25.53
2023-04-23T17:36:18.535Z,18.03
2023-04-23T17:38:47.135Z,24.77
2023-04-23T17:41:15.380Z,24.37
2023-04-23T17:43:44.827Z,20.63
2023-04-23T17:46:13.731Z,28.27
2023-04-23T17:48:42.067Z,35.60
2023-04-23T17:51:10.270Z,30.60
2023-04-23T17:53:38.605Z,32.63
2023-04-23T17:56:07.078Z,28.83
2023-04-23T17:58:36.167Z,33.43
2023-04-23T18:01:09.364Z,27.87
2023-04-23T18:03:38.243Z,35.73
2023-04-23T18:06:08.722Z,35.87
2023-04-23T18:08:39.020Z,38.83
2023-04-23T18:11:08.830Z,40.20
2023-04-23T18:13:37.621Z,34.77
2023-04-23T18:16:07.687Z,42.37
2023-04-23T18:18:35.836Z,39.50
2023-04-23T18:21:05.885Z,39.93
2023-04-23T18:23:36.090Z,45.53
2023-04-23T18:26:04.432Z,45.70
2023-04-23T18:28:34.884Z,41.10
2023-04-23T18:31:03.754Z,38.73
2023-04-23T18:33:41.980Z,42.63
2023-04-23T18:36:21.172Z,37.30
2023-04-23T18:38:50.290Z,44.13
2023-04-23T18:41:18.612Z,39.50
2023-04-23T18:43:46.850Z,55.70
2023-04-23T18:46:15.079Z,44.90
2023-04-23T18:49:06.110Z,45.30
2023-04-23T18:51:39.283Z,42.50
2023-04-23T18:54:07.494Z,42.10
2023-04-23T18:56:35.799Z,44.57
2023-04-23T18:59:04.010Z,47.63
2023-04-23T19:01:32.809Z,47.17
2023-04-23T19:04:02.704Z,49.50
2023-04-23T19:06:31.345Z,44.20
2023-04-23T19:08:59.628Z,51.00
2023-04-23T19:11:30.217Z,49.33
2023-04-23T19:13:58.421Z,42.53
2023-04-23T19:16:27.075Z,54.60
2023-04-23T19:18:56.198Z,49.40
2023-04-23T19:21:26.130Z,51.47
2023-04-23T19:23:56.765Z,45.37
2023-04-23T19:26:24.996Z,53.13
2023-04-23T19:28:53.216Z,48.87
2023-04-23T19:31:21.497Z,50.53
2023-04-23T19:33:49.827Z,47.77
2023-04-23T19:36:18.043Z,47.33
2023-04-23T19:38:47.705Z,51.00
2023-04-23T19:41:15.988Z,52.00
2023-04-23T19:43:44.266Z,52.33
2023-04-23T19:46:12.567Z,56.30
2023-04-23T19:48:40.674Z,53.07
2023-04-23T19:51:08.788Z,44.10
2023-04-23T19:53:37.142Z,45.30
2023-04-23T19:56:08.628Z,51.83
2023-04-23T19:58:36.932Z,51.60
2023-04-23T20:01:05.330Z,64.40
2023-04-23T20:03:34.603Z,56.70
2023-04-23T20:06:02.992Z,51.20
2023-04-23T20:08:41.788Z,55.90
2023-04-23T20:11:11.802Z,50.40
2023-04-23T20:13:40.093Z,47.03
2023-04-23T20:16:08.428Z,45.40
2023-04-23T20:18:38.727Z,43.97
2023-04-23T20:21:07.797Z,41.00
2023-04-23T20:23:36.228Z,38.27
2023-04-23T20:26:04.518Z,41.20
2023-04-23T20:28:34.323Z,42.50
2023-04-23T20:31:02.594Z,34.60
2023-04-23T20:33:31.047Z,35.67
2023-04-23T20:36:01.632Z,36.07
2023-04-23T20:38:33.412Z,34.17
2023-04-23T20:41:02.902Z,34.50
2023-04-23T20:43:32.997Z,32.20
2023-04-23T20:46:03.275Z,22.03
2023-04-23T20:48:31.992Z,16.77
2023-04-23T20:51:00.742Z,16.23
2023-04-23T20:53:29.341Z,19.47
2023-04-23T20:55:57.739Z,15.80
2023-04-23T20:58:26.105Z,13.30
2023-04-23T21:00:54.491Z,16.40
2023-04-23T21:03:24.079Z,15.27
2023-04-23T21:05:52.475Z,14.80
2023-04-23T21:08:20.791Z,13.60
2023-04-23T21:10:49.003Z,15.83
2023-04-23T21:13:17.251Z,12.03
2023-04-23T21:15:45.955Z,16.20
2023-04-23T21:18:14.055Z,18.03
2023-04-23T21:20:43.850Z,11.00
2023-04-23T21:23:12.128Z,9.60
2023-04-23T21:25:41.021Z,14.90
2023-04-23T21:28:09.221Z,9.33
2023-04-23T21:30:46.421Z,13.07
2023-04-23T21:33:15.010Z,15.87
2023-04-23T21:35:44.644Z,12.97
2023-04-23T21:38:13.376Z,14.93
2023-04-23T21:40:41.860Z,13.70
2023-04-23T21:43:10.367Z,14.40
2023-04-23T21:45:39.041Z,15.73
2023-04-23T21:48:07.474Z,12.87
2023-04-23T21:50:36.253Z,15.87
2023-04-23T21:53:07.295Z,15.23
2023-04-23T21:55:35.603Z,17.30
2023-04-23T21:58:16.631Z,20.20
2023-04-23T22:00:46.349Z,18.13
2023-04-23T22:03:17.788Z,16.73
2023-04-23T22:05:59.473Z,14.47
2023-04-23T22:08:29.431Z,15.73
2023-04-23T22:10:57.633Z,14.70
2023-04-23T22:13:26.036Z,12.57
2023-04-23T22:15:54.289Z,14.20
2023-04-23T22:18:22.404Z,11.33
2023-04-23T22:20:51.157Z,13.50
2023-04-23T22:23:19.470Z,12.53
2023-04-23T22:25:49.229Z,17.80
2023-04-23T22:28:17.904Z,12.80
2023-04-23T22:30:46.284Z,10.00
2023-04-23T22:33:14.556Z,19.17
2023-04-23T22:35:42.873Z,11.63
2023-04-23T22:38:11.217Z,13.33
2023-04-23T22:40:39.507Z,15.47
2023-04-23T22:43:09.120Z,13.37
2023-04-23T22:45:37.390Z,14.57
2023-04-23T22:48:05.572Z,12.17
2023-04-23T22:50:33.822Z,13.83
2023-04-23T22:53:02.086Z,15.77
2023-04-23T22:55:30.201Z,14.13
2023-04-23T22:57:58.606Z,15.37
2023-04-23T23:00:28.580Z,12.87
2023-04-23T23:02:57.331Z,12.20
2023-04-23T23:05:25.727Z,15.20
2023-04-23T23:07:54.356Z,13.97
2023-04-23T23:10:23.060Z,13.57
2023-04-23T23:12:51.486Z,11.60
2023-04-23T23:15:19.858Z,18.40
2023-04-23T23:17:49.529Z,12.83
2023-04-23T23:20:18.129Z,14.77
2023-04-23T23:22:46.711Z,11.50
2023-04-23T23:25:14.908Z,20.00
2023-04-23T23:27:43.348Z,15.97
2023-04-23T23:30:12.154Z,13.83
2023-04-23T23:32:40.444Z,22.40
2023-04-23T23:35:10.900Z,17.00
2023-04-23T23:37:39.120Z,16.57
2023-04-23T23:40:08.940Z,16.20
2023-04-23T23:42:37.512Z,14.80
2023-04-23T23:45:07.144Z,20.93
2023-04-23T23:47:35.954Z,12.20
2023-04-23T23:50:04.578Z,14.43
2023-04-23T23:52:34.298Z,13.10
2023-04-23T23:55:02.958Z,17.10
2023-04-23T23:57:31.185Z,17.07
2023-04-23T23:59:59.279Z,12.10
